createdAt,value
2023-05-07T00:03:30.415Z,13.40
2023-05-07T00:09:32.981Z,13.20
2023-05-07T00:15:35.357Z,13.10
2023-05-07T00:21:37.806Z,13.00
2023-05-07T00:27:40.194Z,12.90
2023-05-07T00:33:43.278Z,12.80
2023-05-07T00:39:45.860Z,12.60
2023-05-07T00:45:48.521Z,12.50
2023-05-07T00:51:51.243Z,12.50
2023-05-07T00:57:53.849Z,12.40
2023-05-07T01:03:56.367Z,12.30
2023-05-07T01:09:59.256Z,12.20
2023-05-07T01:16:01.694Z,12.20
2023-05-07T01:22:08.868Z,12.10
2023-05-07T01:28:20.919Z,12.00
2023-05-07T01:34:24.692Z,12.00
2023-05-07T01:40:28.144Z,11.90
2023-05-07T01:46:32.761Z,11.80
2023-05-07T01:52:35.825Z,11.70
2023-05-07T01:58:38.434Z,11.60
2023-05-07T02:04:41.095Z,11.50
2023-05-07T02:10:43.850Z,11.40
2023-05-07T02:16:46.281Z,11.40
2023-05-07T02:22:50.721Z,11.40
2023-05-07T02:28:53.425Z,11.30
2023-05-07T02:34:56.593Z,11.30
2023-05-07T02:40:58.929Z,11.30
2023-05-07T02:47:01.528Z,11.30
2023-05-07T02:53:05.430Z,11.40
2023-05-07T02:59:07.703Z,11.30
2023-05-07T03:05:15.973Z,11.30
2023-05-07T03:11:18.618Z,11.40
2023-05-07T03:17:22.203Z,11.30
2023-05-07T03:23:25.106Z,11.40
2023-05-07T03:29:27.824Z,11.50
2023-05-07T03:35:30.172Z,11.50
2023-05-07T03:41:34.063Z,11.70
2023-05-07T03:47:36.922Z,11.90
2023-05-07T03:53:40.320Z,12.20
2023-05-07T03:59:43.103Z,12.40
2023-05-07T04:05:46.221Z,12.70
2023-05-07T04:11:49.092Z,13.00
2023-05-07T04:17:51.663Z,13.30
2023-05-07T04:23:57.383Z,13.60
2023-05-07T04:30:01.957Z,13.70
2023-05-07T04:36:08.795Z,14.00
2023-05-07T04:42:19.445Z,14.20
2023-05-07T04:48:21.821Z,14.60
2023-05-07T04:54:26.566Z,15.00
2023-05-07T05:00:28.991Z,15.20
2023-05-07T05:06:33.015Z,15.60
2023-05-07T05:12:37.922Z,15.80
2023-05-07T05:18:40.650Z,15.80
2023-05-07T05:24:44.878Z,16.40
2023-05-07T05:30:48.040Z,16.80
2023-05-07T05:36:50.796Z,17.50
2023-05-07T05:42:53.172Z,17.90
2023-05-07T05:48:55.842Z,21.40
2023-05-07T05:54:58.166Z,24.70
2023-05-07T06:01:04.018Z,27.10
2023-05-07T06:07:07.792Z,28.70
2023-05-07T06:13:10.557Z,28.80
2023-05-07T06:19:13.983Z,30.10
2023-05-07T06:25:17.878Z,31.60
2023-05-07T06:31:24.200Z,32.30
2023-05-07T06:37:39.857Z,32.50
2023-05-07T06:43:43.772Z,33.00
2023-05-07T06:50:17.424Z,31.90
2023-05-07T06:56:21.438Z,31.50
2023-05-07T07:02:23.962Z,31.50
2023-05-07T07:08:26.881Z,31.90
2023-05-07T07:14:29.129Z,30.80
2023-05-07T07:20:31.634Z,31.50
2023-05-07T07:26:34.683Z,33.00
2023-05-07T07:32:37.296Z,33.80
2023-05-07T07:38:40.563Z,33.00
2023-05-07T07:44:43.706Z,33.10
2023-05-07T07:50:51.596Z,32.80
2023-05-07T07:56:55.417Z,33.30
2023-05-07T08:03:02.217Z,32.70
2023-05-07T08:09:09.682Z,33.20
2023-05-07T08:15:13.599Z,32.30
2023-05-07T08:21:16.147Z,32.70
2023-05-07T08:27:18.587Z,31.50
2023-05-07T08:33:22.029Z,31.80
2023-05-07T08:39:24.525Z,32.40
2023-05-07T08:45:31.948Z,33.60
2023-05-07T08:51:35.509Z,32.30
2023-05-07T08:57:40.287Z,32.00
2023-05-07T09:03:48.809Z,32.20
2023-05-07T09:09:51.916Z,33.20
2023-05-07T09:15:56.954Z,33.50
2023-05-07T09:22:02.708Z,33.10
2023-05-07T09:28:12.166Z,31.90
2023-05-07T09:34:14.502Z,30.40
2023-05-07T09:40:25.002Z,30.80
2023-05-07T09:46:33.854Z,31.10
2023-05-07T09:52:42.881Z,31.10
2023-05-07T09:58:47.849Z,31.50
2023-05-07T10:04:52.408Z,31.40
2023-05-07T10:11:01.204Z,31.90
2023-05-07T10:17:05.609Z,31.40
2023-05-07T10:23:10.537Z,31.10
2023-05-07T10:29:40.562Z,30.60
2023-05-07T10:35:46.427Z,31.20
2023-05-07T10:41:50.198Z,31.20
2023-05-07T10:48:29.481Z,30.60
2023-05-07T10:54:40.682Z,29.90
2023-05-07T11:00:47.491Z,30.10
2023-05-07T11:07:08.177Z,29.40
2023-05-07T11:13:16.434Z,28.70
2023-05-07T11:19:53.949Z,28.60
2023-05-07T11:26:12.845Z,28.70
2023-05-07T11:32:16.456Z,28.50
2023-05-07T11:38:26.951Z,28.50
2023-05-07T11:44:47.508Z,29.20
2023-05-07T11:50:54.830Z,28.70
2023-05-07T11:56:57.592Z,27.60
2023-05-07T12:03:05.614Z,28.30
2023-05-07T12:09:12.902Z,28.70
2023-05-07T12:15:18.933Z,30.20
2023-05-07T12:21:21.347Z,28.90
2023-05-07T12:27:23.689Z,29.80
2023-05-07T12:33:27.823Z,31.20
2023-05-07T12:39:30.400Z,32.00
2023-05-07T12:45:32.864Z,30.70
2023-05-07T12:51:36.940Z,30.90
2023-05-07T12:57:41.431Z,29.70
2023-05-07T13:03:50.148Z,29.30
2023-05-07T13:09:52.963Z,28.50
2023-05-07T13:15:55.422Z,27.40
2023-05-07T13:21:57.987Z,26.40
2023-05-07T13:28:10.175Z,25.60
2023-05-07T13:34:13.705Z,24.90
2023-05-07T13:40:16.799Z,25.10
2023-05-07T13:46:19.136Z,25.10
2023-05-07T13:52:21.916Z,24.90
2023-05-07T13:58:24.323Z,24.90
2023-05-07T14:04:27.253Z,24.50
2023-05-07T14:10:29.559Z,24.30
2023-05-07T14:16:32.210Z,24.10
2023-05-07T14:22:34.636Z,23.80
2023-05-07T14:28:37.202Z,23.80
2023-05-07T14:34:39.376Z,23.80
2023-05-07T14:40:41.649Z,23.40
2023-05-07T14:46:43.925Z,23.40
2023-05-07T14:52:46.249Z,23.30
2023-05-07T14:58:49.204Z,23.10
2023-05-07T15:04:51.861Z,23.00
2023-05-07T15:10:54.489Z,22.90
2023-05-07T15:16:56.907Z,22.70
2023-05-07T15:22:59.980Z,22.70
2023-05-07T15:29:04.609Z,22.60
2023-05-07T15:35:07.473Z,22.40
2023-05-07T15:41:10.726Z,22.40
2023-05-07T15:47:15.342Z,22.20
2023-05-07T15:53:17.784Z,22.10
2023-05-07T15:59:20.235Z,22.00
2023-05-07T16:05:22.735Z,21.80
2023-05-07T16:11:24.905Z,21.70
2023-05-07T16:17:27.503Z,21.60
2023-05-07T16:23:30.064Z,21.40
2023-05-07T16:29:32.449Z,21.30
2023-05-07T16:35:34.771Z,21.10
2023-05-07T16:41:37.152Z,21.00
2023-05-07T16:47:39.976Z,20.90
2023-05-07T16:53:42.157Z,20.80
2023-05-07T16:59:44.371Z,20.60
2023-05-07T17:05:46.909Z,20.40
2023-05-07T17:11:49.109Z,20.30
2023-05-07T17:17:51.441Z,20.10
2023-05-07T17:23:53.682Z,20.00
2023-05-07T17:29:55.895Z,19.80
2023-05-07T17:35:58.072Z,19.70
2023-05-07T17:42:00.743Z,19.60
2023-05-07T17:48:03.928Z,19.40
2023-05-07T17:54:06.301Z,19.30
2023-05-07T18:00:10.049Z,19.20
2023-05-07T18:06:18.505Z,19.10
2023-05-07T18:12:22.231Z,19.00
2023-05-07T18:18:26.600Z,18.90
2023-05-07T18:24:28.973Z,18.70
2023-05-07T18:30:31.231Z,18.60
2023-05-07T18:36:33.785Z,18.50
2023-05-07T18:42:37.283Z,18.40
2023-05-07T18:48:39.892Z,18.30
2023-05-07T18:54:46.132Z,18.30
2023-05-07T19:00:50.083Z,18.30
2023-05-07T19:06:52.404Z,18.30
2023-05-07T19:12:55.917Z,18.40
2023-05-07T19:18:58.047Z,18.40
2023-05-07T19:25:00.561Z,18.40
2023-05-07T19:31:02.692Z,18.30
2023-05-07T19:37:06.216Z,18.30
2023-05-07T19:43:09.090Z,18.30
2023-05-07T19:49:12.890Z,18.30
2023-05-07T19:55:15.573Z,18.30
2023-05-07T20:01:18.299Z,18.30
2023-05-07T20:07:20.979Z,18.30
2023-05-07T20:13:23.418Z,18.20
2023-05-07T20:19:26.400Z,18.20
2023-05-07T20:25:29.354Z,18.20
2023-05-07T20:31:32.731Z,18.10
2023-05-07T20:37:36.114Z,18.00
2023-05-07T20:43:38.663Z,17.80
2023-05-07T20:49:41.032Z,17.50
2023-05-07T20:55:43.006Z,17.20
2023-05-07T21:01:45.268Z,16.80
2023-05-07T21:07:47.841Z,16.50
2023-05-07T21:13:50.304Z,16.30
2023-05-07T21:19:52.551Z,16.10
2023-05-07T21:25:54.757Z,15.80
2023-05-07T21:31:57.104Z,15.70
2023-05-07T21:38:01.068Z,15.50
2023-05-07T21:44:04.673Z,15.30
2023-05-07T21:50:07.854Z,15.10
2023-05-07T21:56:09.931Z,15.00
2023-05-07T22:02:12.039Z,14.90
2023-05-07T22:08:14.244Z,14.80
2023-05-07T22:14:17.810Z,14.70
2023-05-07T22:20:21.261Z,14.60
2023-05-07T22:26:23.732Z,14.50
2023-05-07T22:32:26.132Z,14.40
2023-05-07T22:38:28.278Z,14.40
2023-05-07T22:44:30.652Z,14.30
2023-05-07T22:50:39.770Z,14.20
2023-05-07T22:56:43.001Z,14.10
2023-05-07T23:02:45.515Z,14.00
2023-05-07T23:08:47.701Z,13.90
2023-05-07T23:14:50.096Z,13.90
2023-05-07T23:20:52.286Z,13.80
2023-05-07T23:26:54.491Z,13.70
2023-05-07T23:32:56.787Z,13.60
2023-05-07T23:38:59.126Z,13.50
2023-05-07T23:45:01.737Z,13.50
2023-05-07T23:51:04.335Z,13.60
2023-05-07T23:57:06.770Z,13.60
